createdAt,value
2022-08-20T00:02:40.975Z,1.20
2022-08-20T00:05:48.448Z,1.65
2022-08-20T00:08:54.328Z,0.77
2022-08-20T00:11:57.846Z,1.27
2022-08-20T00:15:01.402Z,0.90
2022-08-20T00:18:05.212Z,1.00
2022-08-20T00:21:10.946Z,0.80
2022-08-20T00:24:14.978Z,1.05
2022-08-20T00:27:17.681Z,1.30
2022-08-20T00:30:20.789Z,1.00
2022-08-20T00:33:25.078Z,1.08
2022-08-20T00:36:32.762Z,0.80
2022-08-20T00:39:37.434Z,1.00
2022-08-20T00:42:44.733Z,1.00
2022-08-20T00:45:47.704Z,0.90
2022-08-20T00:48:53.780Z,0.82
2022-08-20T00:52:00.714Z,1.23
2022-08-20T00:55:07.585Z,1.02
2022-08-20T00:58:10.539Z,0.95
2022-08-20T01:01:14.209Z,0.90
2022-08-20T01:04:16.954Z,0.90
2022-08-20T01:07:20.575Z,1.00
2022-08-20T01:10:27.671Z,1.08
2022-08-20T01:13:31.820Z,0.85
2022-08-20T01:16:36.534Z,0.80
2022-08-20T01:19:49.149Z,0.98
2022-08-20T01:23:17.584Z,1.00
2022-08-20T01:26:24.836Z,0.73
2022-08-20T01:29:33.590Z,0.85
2022-08-20T01:32:36.378Z,1.00
2022-08-20T01:35:41.483Z,1.20
2022-08-20T01:38:53.108Z,0.90
2022-08-20T01:42:12.597Z,0.93
2022-08-20T01:45:26.963Z,0.80
2022-08-20T01:48:31.642Z,0.90
2022-08-20T01:51:34.434Z,1.30
2022-08-20T01:54:37.214Z,1.02
2022-08-20T01:57:41.940Z,1.08
2022-08-20T02:00:44.769Z,0.95
2022-08-20T02:03:47.669Z,1.20
2022-08-20T02:06:56.117Z,0.90
2022-08-20T02:10:01.135Z,1.00
2022-08-20T02:13:07.879Z,1.00
2022-08-20T02:16:10.631Z,0.80
2022-08-20T02:19:17.569Z,0.68
2022-08-20T02:22:27.062Z,1.00
2022-08-20T02:25:35.066Z,1.10
2022-08-20T02:28:39.215Z,1.00
2022-08-20T02:32:32.575Z,1.02
2022-08-20T02:35:11.994Z,0.88
2022-08-20T02:38:15.877Z,0.80
2022-08-20T02:41:18.577Z,0.85
2022-08-20T02:44:22.742Z,1.00
2022-08-20T02:47:25.977Z,1.10
2022-08-20T02:50:29.533Z,1.00
2022-08-20T02:53:34.954Z,0.90
2022-08-20T02:56:37.689Z,0.80
2022-08-20T02:59:41.919Z,0.90
2022-08-20T03:02:45.454Z,0.82
2022-08-20T03:05:48.142Z,1.15
2022-08-20T03:08:50.891Z,0.88
2022-08-20T03:11:54.530Z,1.10
2022-08-20T03:14:59.001Z,1.20
2022-08-20T03:18:03.153Z,1.02
2022-08-20T03:21:07.130Z,1.10
2022-08-20T03:24:13.052Z,1.10
2022-08-20T03:27:15.782Z,1.10
2022-08-20T03:30:20.435Z,1.23
2022-08-20T03:33:24.113Z,1.13
2022-08-20T03:36:29.008Z,1.30
2022-08-20T03:39:31.957Z,1.20
2022-08-20T03:42:34.734Z,1.30
2022-08-20T03:45:41.454Z,1.17
2022-08-20T03:48:44.215Z,1.35
2022-08-20T03:51:57.820Z,1.20
2022-08-20T03:55:01.022Z,1.20
2022-08-20T03:58:07.062Z,1.10
2022-08-20T04:01:45.099Z,1.45
2022-08-20T04:04:33.902Z,1.63
2022-08-20T04:07:37.846Z,1.60
2022-08-20T04:10:40.797Z,1.50
2022-08-20T04:13:43.536Z,1.60
2022-08-20T04:16:48.943Z,1.73
2022-08-20T04:19:51.921Z,1.70
2022-08-20T04:22:59.421Z,1.60
2022-08-20T04:26:02.469Z,1.58
2022-08-20T04:29:05.402Z,1.80
2022-08-20T04:32:09.761Z,1.60
2022-08-20T04:35:18.189Z,1.80
2022-08-20T04:38:22.542Z,1.92
2022-08-20T04:41:25.257Z,1.92
2022-08-20T04:44:28.808Z,1.77
2022-08-20T04:47:34.833Z,1.92
2022-08-20T04:50:40.534Z,1.83
2022-08-20T04:53:44.653Z,1.90
2022-08-20T04:56:55.077Z,1.75
2022-08-20T04:59:59.565Z,1.80
2022-08-20T05:03:04.364Z,2.05
2022-08-20T05:06:11.008Z,2.25
2022-08-20T05:09:13.720Z,2.10
2022-08-20T05:12:18.074Z,1.70
2022-08-20T05:15:21.230Z,2.00
2022-08-20T05:18:26.522Z,1.90
2022-08-20T05:21:29.252Z,2.08
2022-08-20T05:24:32.295Z,1.80
2022-08-20T05:27:34.978Z,2.00
2022-08-20T05:30:39.413Z,2.10
2022-08-20T05:33:43.866Z,2.22
2022-08-20T05:36:49.563Z,1.67
2022-08-20T05:39:52.318Z,2.17
2022-08-20T05:42:55.672Z,1.70
2022-08-20T05:45:59.033Z,2.10
2022-08-20T05:49:03.159Z,1.95
2022-08-20T05:52:06.254Z,2.20
2022-08-20T05:55:13.191Z,2.22
2022-08-20T05:58:18.537Z,2.33
2022-08-20T06:01:21.336Z,1.77
2022-08-20T06:04:24.763Z,2.22
2022-08-20T06:07:28.122Z,2.53
2022-08-20T06:10:30.907Z,2.42
2022-08-20T06:13:33.633Z,2.00
2022-08-20T06:16:37.266Z,2.38
2022-08-20T06:19:44.108Z,2.55
2022-08-20T06:22:47.270Z,2.17
2022-08-20T06:25:50.842Z,1.95
2022-08-20T06:28:54.243Z,2.08
2022-08-20T06:31:57.436Z,1.95
2022-08-20T06:35:03.221Z,2.00
2022-08-20T06:38:06.848Z,2.45
2022-08-20T06:41:09.554Z,2.30
2022-08-20T06:44:12.273Z,2.50
2022-08-20T06:47:15.157Z,2.33
2022-08-20T06:50:23.298Z,2.10
2022-08-20T06:53:25.997Z,2.75
2022-08-20T06:56:28.892Z,2.15
2022-08-20T06:59:31.594Z,2.58
2022-08-20T07:02:35.849Z,2.17
2022-08-20T07:05:42.898Z,2.30
2022-08-20T07:08:46.254Z,2.38
2022-08-20T07:11:49.380Z,2.53
2022-08-20T07:14:52.112Z,2.30
2022-08-20T07:18:00.938Z,2.40
2022-08-20T07:21:05.995Z,2.30
2022-08-20T07:24:09.633Z,2.42
2022-08-20T07:27:12.334Z,2.67
2022-08-20T07:30:57.065Z,2.40
2022-08-20T07:33:59.827Z,2.67
2022-08-20T07:37:04.279Z,2.40
2022-08-20T07:40:13.169Z,2.63
2022-08-20T07:43:16.336Z,2.08
2022-08-20T07:46:21.461Z,2.35
2022-08-20T07:49:24.233Z,2.33
2022-08-20T07:52:28.470Z,2.55
2022-08-20T07:55:31.878Z,2.72
2022-08-20T07:58:36.807Z,2.47
2022-08-20T08:01:39.581Z,2.30
2022-08-20T08:04:42.685Z,2.20
2022-08-20T08:07:47.366Z,2.20
2022-08-20T08:10:55.737Z,2.70
2022-08-20T08:14:00.757Z,2.40
2022-08-20T08:17:05.588Z,3.15
2022-08-20T08:20:12.313Z,2.75
2022-08-20T08:23:24.812Z,2.97
2022-08-20T08:26:34.908Z,2.70
2022-08-20T08:29:38.488Z,2.72
2022-08-20T08:33:01.783Z,3.28
2022-08-20T08:36:09.560Z,3.33
2022-08-20T08:39:13.724Z,3.10
2022-08-20T08:42:27.546Z,3.05
2022-08-20T08:45:36.726Z,2.85
2022-08-20T08:48:43.614Z,2.08
2022-08-20T08:51:50.413Z,2.80
2022-08-20T08:54:57.965Z,3.10
2022-08-20T08:58:04.341Z,3.40
2022-08-20T09:01:55.653Z,2.72
2022-08-20T09:04:44.810Z,2.63
2022-08-20T09:07:51.068Z,2.47
2022-08-20T09:11:02.377Z,2.30
2022-08-20T09:14:05.053Z,2.67
2022-08-20T09:17:07.949Z,2.55
2022-08-20T09:20:11.385Z,1.90
2022-08-20T09:23:14.088Z,1.98
2022-08-20T09:26:18.141Z,1.70
2022-08-20T09:29:20.850Z,1.38
2022-08-20T09:32:26.122Z,1.33
2022-08-20T09:35:29.745Z,1.38
2022-08-20T09:38:32.745Z,1.30
2022-08-20T09:41:36.843Z,1.55
2022-08-20T09:44:39.954Z,1.65
2022-08-20T09:47:55.005Z,1.52
2022-08-20T09:50:59.887Z,1.70
2022-08-20T09:54:03.348Z,1.20
2022-08-20T09:57:10.056Z,0.90
2022-08-20T10:00:13.455Z,1.10
2022-08-20T10:03:17.097Z,1.20
2022-08-20T10:06:21.126Z,1.10
2022-08-20T10:09:24.333Z,1.60
2022-08-20T10:12:29.118Z,1.02
2022-08-20T10:15:32.537Z,0.80
2022-08-20T10:18:36.468Z,0.60
2022-08-20T10:21:39.520Z,1.02
2022-08-20T10:24:42.378Z,0.30
2022-08-20T10:27:46.721Z,0.60
2022-08-20T10:30:49.795Z,0.40
2022-08-20T10:33:52.702Z,0.50
2022-08-20T10:36:55.382Z,0.52
2022-08-20T10:39:58.221Z,0.63
2022-08-20T10:43:03.066Z,0.80
2022-08-20T10:46:05.993Z,0.70
2022-08-20T10:49:08.687Z,0.50
2022-08-20T10:52:12.034Z,0.30
2022-08-20T10:55:14.830Z,0.50
2022-08-20T10:58:18.928Z,0.45
2022-08-20T11:01:31.264Z,0.45
2022-08-20T11:04:36.410Z,0.40
2022-08-20T11:07:55.484Z,0.40
2022-08-20T11:10:59.311Z,0.50
2022-08-20T11:14:03.419Z,0.65
2022-08-20T11:17:07.546Z,0.50
2022-08-20T11:20:12.401Z,0.50
2022-08-20T11:23:15.137Z,0.52
2022-08-20T11:26:23.215Z,0.52
2022-08-20T11:29:30.966Z,0.38
2022-08-20T11:32:36.237Z,0.55
2022-08-20T11:35:48.380Z,0.30
2022-08-20T11:38:52.617Z,0.45
2022-08-20T11:41:55.556Z,0.47
2022-08-20T11:44:59.994Z,0.40
2022-08-20T11:48:02.711Z,0.68
2022-08-20T11:51:05.702Z,0.60
2022-08-20T11:54:08.587Z,0.40
2022-08-20T11:57:11.321Z,0.40
2022-08-20T12:00:19.251Z,0.60
2022-08-20T12:03:22.027Z,0.40
2022-08-20T12:06:24.748Z,0.55
2022-08-20T12:09:27.979Z,0.57
2022-08-20T12:12:30.774Z,0.50
2022-08-20T12:15:35.017Z,0.73
2022-08-20T12:18:37.762Z,0.47
2022-08-20T12:21:40.724Z,0.50
2022-08-20T12:24:43.546Z,0.60
2022-08-20T12:27:47.013Z,0.63
2022-08-20T12:30:51.208Z,0.55
2022-08-20T12:33:53.941Z,0.50
2022-08-20T12:37:02.712Z,0.47
2022-08-20T12:40:08.919Z,0.70
2022-08-20T12:43:11.767Z,0.77
2022-08-20T12:46:15.817Z,3.03
2022-08-20T12:49:18.776Z,2.08
2022-08-20T12:52:22.694Z,1.75
2022-08-20T12:55:25.576Z,1.60
2022-08-20T12:58:28.265Z,1.48
2022-08-20T13:01:32.393Z,1.70
2022-08-20T13:04:35.203Z,1.65
2022-08-20T13:07:38.921Z,1.58
2022-08-20T13:10:45.753Z,1.70
2022-08-20T13:13:48.585Z,1.65
2022-08-20T13:16:57.770Z,3.20
2022-08-20T13:20:03.997Z,1.67
2022-08-20T13:23:07.201Z,1.60
2022-08-20T13:26:09.962Z,1.60
2022-08-20T13:29:13.573Z,1.60
2022-08-20T13:32:18.038Z,1.50
2022-08-20T13:35:21.518Z,1.48
2022-08-20T13:38:25.239Z,1.38
2022-08-20T13:41:28.331Z,1.25
2022-08-20T13:44:33.191Z,1.30
2022-08-20T13:47:39.983Z,1.30
2022-08-20T13:50:42.872Z,1.30
2022-08-20T13:53:45.601Z,1.60
2022-08-20T13:56:49.646Z,1.65
2022-08-20T13:59:54.922Z,1.60
2022-08-20T14:02:59.219Z,1.70
2022-08-20T14:06:02.227Z,1.50
2022-08-20T14:09:05.043Z,1.30
2022-08-20T14:12:09.822Z,1.23
2022-08-20T14:15:13.070Z,1.83
2022-08-20T14:18:17.182Z,1.45
2022-08-20T14:21:19.942Z,1.50
2022-08-20T14:24:22.641Z,1.40
2022-08-20T14:27:30.685Z,1.67
2022-08-20T14:30:34.137Z,1.50
2022-08-20T14:33:41.338Z,1.20
2022-08-20T14:36:47.181Z,1.33
2022-08-20T14:39:54.323Z,1.42
2022-08-20T14:42:57.477Z,1.50
2022-08-20T14:46:00.657Z,1.30
2022-08-20T14:49:04.736Z,1.10
2022-08-20T14:52:07.834Z,1.20
2022-08-20T14:55:17.841Z,1.10
2022-08-20T14:58:20.573Z,0.70
2022-08-20T15:01:23.341Z,0.63
2022-08-20T15:04:27.510Z,0.60
2022-08-20T15:07:35.837Z,0.50
2022-08-20T15:10:39.073Z,0.30
2022-08-20T15:13:41.822Z,0.57
2022-08-20T15:16:44.893Z,0.60
2022-08-20T15:19:49.969Z,0.40
2022-08-20T15:22:53.132Z,0.45
2022-08-20T15:25:55.877Z,0.50
2022-08-20T15:28:58.596Z,0.50
2022-08-20T15:32:01.279Z,0.70
2022-08-20T15:35:07.366Z,0.50
2022-08-20T15:38:10.047Z,0.55
2022-08-20T15:41:12.743Z,0.60
2022-08-20T15:44:15.466Z,0.60
2022-08-20T15:47:24.607Z,0.55
2022-08-20T15:50:41.983Z,0.70
2022-08-20T15:53:53.257Z,0.93
2022-08-20T15:57:02.552Z,1.00
2022-08-20T16:00:13.259Z,0.90
2022-08-20T16:03:36.389Z,0.90
2022-08-20T16:06:44.026Z,1.25
2022-08-20T16:10:02.196Z,1.15
2022-08-20T16:13:10.930Z,1.00
2022-08-20T16:16:21.073Z,1.10
2022-08-20T16:19:27.241Z,0.80
2022-08-20T16:22:32.330Z,0.90
2022-08-20T16:25:45.253Z,0.90
2022-08-20T16:28:57.882Z,0.93
2022-08-20T16:32:04.354Z,1.00
2022-08-20T16:35:30.531Z,0.82
2022-08-20T16:38:41.986Z,0.90
2022-08-20T16:41:46.913Z,0.82
2022-08-20T16:44:53.861Z,1.10
2022-08-20T16:48:02.208Z,0.80
2022-08-20T16:51:09.729Z,1.13
2022-08-20T16:54:13.797Z,0.77
2022-08-20T16:57:18.266Z,1.00
2022-08-20T17:00:25.306Z,1.00
2022-08-20T17:03:31.592Z,1.00
2022-08-20T17:06:47.681Z,0.85
2022-08-20T17:09:52.634Z,0.95
2022-08-20T17:12:59.428Z,0.80
2022-08-20T17:16:04.535Z,1.08
2022-08-20T17:19:13.530Z,0.95
2022-08-20T17:22:19.646Z,1.08
2022-08-20T17:25:35.704Z,1.20
2022-08-20T17:28:38.546Z,1.00
2022-08-20T17:31:44.528Z,0.85
2022-08-20T17:34:49.797Z,1.20
2022-08-20T17:37:54.390Z,1.23
2022-08-20T17:41:02.854Z,1.20
2022-08-20T17:44:07.905Z,0.90
2022-08-20T17:47:16.145Z,1.02
2022-08-20T17:50:22.061Z,0.98
2022-08-20T17:53:29.450Z,1.20
2022-08-20T17:56:40.188Z,1.00
2022-08-20T18:00:00.678Z,1.52
2022-08-20T18:03:16.096Z,1.13
2022-08-20T18:06:29.852Z,1.15
2022-08-20T18:09:44.678Z,1.00
2022-08-20T18:12:58.787Z,1.13
2022-08-20T18:16:03.397Z,0.93
2022-08-20T18:19:15.353Z,1.33
2022-08-20T18:22:21.574Z,0.90
2022-08-20T18:25:31.958Z,1.30
2022-08-20T18:28:39.707Z,0.90
2022-08-20T18:31:46.997Z,1.10
2022-08-20T18:34:51.088Z,0.95
2022-08-20T18:37:55.115Z,1.40
2022-08-20T18:41:13.826Z,1.35
2022-08-20T18:44:29.861Z,1.10
2022-08-20T18:47:46.654Z,1.42
2022-08-20T18:50:55.024Z,1.00
2022-08-20T18:53:57.791Z,1.20
2022-08-20T18:57:09.078Z,1.60
2022-08-20T19:00:18.058Z,1.20
2022-08-20T19:03:27.542Z,1.38
2022-08-20T19:06:40.348Z,1.20
2022-08-20T19:09:57.098Z,1.13
2022-08-20T19:13:20.408Z,1.23
2022-08-20T19:16:34.589Z,1.35
2022-08-20T19:19:37.910Z,1.55
2022-08-20T19:22:42.636Z,1.10
2022-08-20T19:25:54.809Z,1.20
2022-08-20T19:29:01.887Z,1.20
2022-08-20T19:32:09.502Z,1.25
2022-08-20T19:35:18.880Z,1.52
2022-08-20T19:38:22.270Z,1.45
2022-08-20T19:41:31.472Z,1.50
2022-08-20T19:44:46.565Z,1.33
2022-08-20T19:48:06.430Z,1.45
2022-08-20T19:51:20.475Z,1.52
2022-08-20T19:54:32.267Z,1.42
2022-08-20T19:57:44.374Z,1.60
2022-08-20T20:00:56.096Z,1.30
2022-08-20T20:04:06.019Z,1.60
2022-08-20T20:07:19.732Z,1.40
2022-08-20T20:10:35.373Z,1.60
2022-08-20T20:13:40.951Z,1.40
2022-08-20T20:16:45.200Z,1.60
2022-08-20T20:20:00.610Z,1.40
2022-08-20T20:23:20.120Z,1.25
2022-08-20T20:26:38.558Z,1.67
2022-08-20T20:29:47.736Z,1.58
2022-08-20T20:32:54.414Z,1.48
2022-08-20T20:36:07.912Z,1.30
2022-08-20T20:39:25.814Z,1.27
2022-08-20T20:42:42.402Z,1.42
2022-08-20T20:46:03.377Z,1.58
2022-08-20T20:49:22.610Z,1.40
2022-08-20T20:52:48.645Z,1.55
2022-08-20T20:55:57.155Z,1.40
2022-08-20T20:59:07.370Z,1.60
2022-08-20T21:02:14.671Z,1.45
2022-08-20T21:05:23.987Z,1.58
2022-08-20T21:08:30.998Z,1.30
2022-08-20T21:11:39.368Z,1.40
2022-08-20T21:14:44.494Z,1.50
2022-08-20T21:17:48.501Z,1.55
2022-08-20T21:20:55.712Z,1.70
2022-08-20T21:24:01.462Z,1.50
2022-08-20T21:27:16.849Z,1.77
2022-08-20T21:30:24.226Z,1.27
2022-08-20T21:33:33.159Z,1.27
2022-08-20T21:36:40.790Z,1.50
2022-08-20T21:39:48.452Z,1.25
2022-08-20T21:42:55.180Z,1.33
2022-08-20T21:46:02.346Z,1.20
2022-08-20T21:49:09.409Z,1.80
2022-08-20T21:52:15.616Z,1.60
2022-08-20T21:55:22.823Z,1.48
2022-08-20T21:58:28.582Z,1.50
2022-08-20T22:01:34.043Z,1.27
2022-08-20T22:04:43.123Z,1.40
2022-08-20T22:07:48.286Z,1.60
2022-08-20T22:10:58.788Z,1.40
2022-08-20T22:14:11.368Z,1.20
2022-08-20T22:17:18.718Z,1.40
2022-08-20T22:20:25.253Z,1.50
2022-08-20T22:23:32.164Z,1.50
2022-08-20T22:26:45.208Z,1.40
2022-08-20T22:29:53.196Z,2.00
2022-08-20T22:33:06.981Z,1.40
2022-08-20T22:36:15.128Z,1.20
2022-08-20T22:39:20.880Z,1.50
2022-08-20T22:42:30.318Z,1.30
2022-08-20T22:45:38.743Z,1.55
2022-08-20T22:48:49.531Z,1.70
2022-08-20T22:51:58.638Z,1.35
2022-08-20T22:55:06.025Z,1.65
2022-08-20T22:58:13.732Z,1.63
2022-08-20T23:01:20.610Z,1.40
2022-08-20T23:04:30.366Z,1.50
2022-08-20T23:07:39.241Z,1.50
2022-08-20T23:10:48.353Z,1.58
2022-08-20T23:13:59.079Z,2.00
2022-08-20T23:17:13.767Z,1.15
2022-08-20T23:20:20.857Z,1.70
2022-08-20T23:23:29.461Z,1.70
2022-08-20T23:26:35.400Z,1.40
2022-08-20T23:29:47.157Z,1.40
2022-08-20T23:32:56.275Z,1.50
2022-08-20T23:36:05.667Z,1.45
2022-08-20T23:39:12.748Z,1.55
2022-08-20T23:42:21.039Z,1.55
2022-08-20T23:45:32.414Z,1.60
2022-08-20T23:48:40.143Z,1.35
2022-08-20T23:51:46.898Z,1.50
2022-08-20T23:54:55.116Z,1.50
2022-08-20T23:58:06.064Z,1.50
